KEST/EST METAR and TAF weather

Enter ICAO airport designator
Station Type Date Time Source
KEST METAR 2020/08/12 17:52 UTC NOAA

KEST 121752Z AUTO 14007KT 10SM OVC019 24/22 A3002 RMK AO2 SLP159 T02440217 10256 20178 51012


Station Type Date Time Source
KEST Decoded METAR 2020/08/12 17:52 UTC NOAA

ESTHERVILLE MUNICIPAL AIRPORT , IA, United States (KEST) 43-24N 94-45W 401M
Aug 12, 2020 - 01:52 PM EDT / 2020.08.12 1752 UTC
Wind: from the SE (140 degrees) at 8 MPH (7 KT):0
Visibility: 10 mile(s):0
Sky conditions: overcast
Temperature: 75.9 F (24.4 C)
Dew Point: 71.1 F (21.7 C)
Relative Humidity: 84%
Pressure (altimeter): 30.02 in. Hg (1016 hPa)
Pressure tendency: 0.04 inches (1.2 hPa) higher than three hours ago
ob: KEST 121752Z AUTO 14007KT 10SM OVC019 24/22 A3002 RMK AO2 SLP159 T02440217 10256 20178 51012
cycle: 18

Station Type Date Time Source
KEST TAF UTC NOAA

Error!

Example: see airport list